To NAV CANADA Home Page Login to a new session Search on AWWS site Feedback and Comments Disclaimer Vers la page française équivalente Tips FAQ What's new on the site To the Forecasts and Observations / NOTAM section To "File a Flight Plan" website Publications and other links Update of the User's profile FIC Telephone Numbers My Weather Data Folder Route Weather Data Regional Weather Data Local Weather Data To the Forecasts and Observations / NOTAM section
Request Generated 04/26/2015 at 13:02:13 UTC . Weather information available at that time is displayed.

METAR/TAF

HIGH LEVEL/AB    (show WxCam)

METAR CYOJ 261300Z 00000KT 15SM SKC M05/M08 A3010 RMK SLP214=
METAR CYOJ 261200Z AUTO 00000KT 9SM CLR M05/M08 A3010 RMK SLP213=
METAR CYOJ 261100Z AUTO 00000KT 9SM CLR M03/M09 A3010 RMK SLP213=

TAF CYOJ 261238Z 2613/2701 VRB03KT P6SM SKC
BECMG 2618/2620 14010KT
RMK FCST BASED ON AUTO OBS. NXT FCST BY 261900Z=
Your time UTC time
Weather data provided by Environment Canada and NAV CANADA